JAL332 RJFF-RJTT
Flight info
| Callsign | JAL332 |
|---|---|
| Flight time | N/A |
| Altitude | 39000 |
| Route | RJFF/34R N0479F390 YOKAT6 IPRIR Y231 OMKAT Y235 FLUTE Y23 ARTIC Y71 XAC XAC1B RJTT/22 |
| Aircraft | B77W/M-SDE1E2E3FGHIJ2J3J4J5M1RWXYZ/LB1D1 |
Departure
| Time | 2026-05-07 13:06 |
|---|---|
| Airport | Fukuoka Airport (RJFF) |
Arrival
| Time | N/A |
|---|---|
| Airport | Tokyo Haneda International Airport (RJTT) |
| Time | Latitude | Longitude | Altitude | Speed | Heading |
|---|---|---|---|---|---|
| 2026-05-07 12:27 | 33.59575 | 130.44822 | 29 ft | 0 kts | 61° |
| 2026-05-07 12:40 | 33.59574 | 130.44820 | 29 ft | 1 kts | 61° |
| 2026-05-07 12:41 | 33.59565 | 130.44803 | 30 ft | 3 kts | 50° |
| 2026-05-07 12:41 | 33.59551 | 130.44787 | 29 ft | 3 kts | 32° |
| 2026-05-07 12:41 | 33.59547 | 130.44783 | 28 ft | 0 kts | 27° |
| 2026-05-07 12:43 | 33.59575 | 130.44822 | 28 ft | 4 kts | 61° |
| 2026-05-07 12:52 | 33.59573 | 130.44819 | 29 ft | 2 kts | 62° |
| 2026-05-07 12:53 | 33.59566 | 130.44800 | 30 ft | 3 kts | 72° |
| 2026-05-07 12:53 | 33.59561 | 130.44776 | 30 ft | 3 kts | 88° |
| 2026-05-07 12:53 | 33.59562 | 130.44753 | 30 ft | 3 kts | 101° |
| 2026-05-07 12:53 | 33.59567 | 130.44729 | 31 ft | 3 kts | 102° |
| 2026-05-07 12:54 | 33.59569 | 130.44716 | 31 ft | 1 kts | 98° |
| 2026-05-07 12:54 | 33.59569 | 130.44714 | 31 ft | 2 kts | 98° |
| 2026-05-07 12:58 | 33.59567 | 130.44724 | 31 ft | 3 kts | 105° |
| 2026-05-07 12:58 | 33.59552 | 130.44752 | 30 ft | 5 kts | 124° |
| 2026-05-07 12:58 | 33.59518 | 130.44791 | 29 ft | 8 kts | 156° |
| 2026-05-07 12:58 | 33.59458 | 130.44813 | 29 ft | 10 kts | 161° |
| 2026-05-07 12:59 | 33.59384 | 130.44841 | 29 ft | 12 kts | 172° |
| 2026-05-07 12:59 | 33.59299 | 130.44850 | 30 ft | 13 kts | 177° |
| 2026-05-07 12:59 | 33.59209 | 130.44878 | 30 ft | 14 kts | 156° |
| 2026-05-07 12:59 | 33.59115 | 130.44938 | 30 ft | 16 kts | 150° |
| 2026-05-07 13:00 | 33.59020 | 130.45003 | 33 ft | 16 kts | 150° |
| 2026-05-07 13:00 | 33.58924 | 130.45068 | 35 ft | 16 kts | 150° |
| 2026-05-07 13:00 | 33.58829 | 130.45133 | 37 ft | 16 kts | 150° |
| 2026-05-07 13:00 | 33.58734 | 130.45199 | 40 ft | 16 kts | 150° |
| 2026-05-07 13:01 | 33.58636 | 130.45266 | 40 ft | 17 kts | 150° |
| 2026-05-07 13:01 | 33.58526 | 130.45342 | 39 ft | 19 kts | 150° |
| 2026-05-07 13:01 | 33.58410 | 130.45423 | 39 ft | 20 kts | 150° |
| 2026-05-07 13:01 | 33.58282 | 130.45509 | 38 ft | 22 kts | 150° |
| 2026-05-07 13:02 | 33.58151 | 130.45598 | 41 ft | 22 kts | 150° |
| 2026-05-07 13:02 | 33.58019 | 130.45687 | 44 ft | 22 kts | 149° |
| 2026-05-07 13:02 | 33.57892 | 130.45780 | 48 ft | 22 kts | 149° |
| 2026-05-07 13:02 | 33.57757 | 130.45858 | 50 ft | 21 kts | 170° |
| 2026-05-07 13:03 | 33.57693 | 130.45817 | 49 ft | 0 kts | 240° |
| 2026-05-07 13:04 | 33.57691 | 130.45814 | 49 ft | 3 kts | 240° |
| 2026-05-07 13:04 | 33.57675 | 130.45712 | 49 ft | 18 kts | 293° |
| 2026-05-07 13:05 | 33.57723 | 130.45657 | 47 ft | 0 kts | 331° |
| 2026-05-07 13:05 | 33.57724 | 130.45657 | 47 ft | 0 kts | 331° |
| 2026-05-07 13:05 | 33.57726 | 130.45655 | 48 ft | 1 kts | 331° |
| 2026-05-07 13:06 | 33.57768 | 130.45628 | 49 ft | 30 kts | 331° |
| 2026-05-07 13:06 | 33.58233 | 130.45312 | 41 ft | 120 kts | 330° |
| 2026-05-07 13:06 | 33.59172 | 130.44671 | 147 ft | 175 kts | 330° |
| 2026-05-07 13:06 | 33.60199 | 130.43922 | 1049 ft | 168 kts | 328° |
| 2026-05-07 13:07 | 33.61232 | 130.43206 | 1867 ft | 175 kts | 327° |
| 2026-05-07 13:07 | 33.62294 | 130.42486 | 2649 ft | 181 kts | 327° |
| 2026-05-07 13:07 | 33.63405 | 130.41742 | 3434 ft | 185 kts | 326° |
| 2026-05-07 13:07 | 33.64544 | 130.41006 | 4196 ft | 189 kts | 334° |
| 2026-05-07 13:08 | 33.65877 | 130.40907 | 4785 ft | 205 kts | 17° |
| 2026-05-07 13:08 | 33.66996 | 130.41987 | 5245 ft | 216 kts | 60° |
| 2026-05-07 13:08 | 33.67711 | 130.43651 | 5623 ft | 234 kts | 63° |
| 2026-05-07 13:08 | 33.68522 | 130.45475 | 5996 ft | 259 kts | 62° |
| 2026-05-07 13:09 | 33.69138 | 130.47575 | 6368 ft | 279 kts | 88° |
| 2026-05-07 13:09 | 33.68774 | 130.49856 | 7002 ft | 283 kts | 122° |
| 2026-05-07 13:09 | 33.67453 | 130.51555 | 7711 ft | 280 kts | 152° |
| 2026-05-07 13:09 | 33.65755 | 130.52690 | 8352 ft | 286 kts | 156° |
| 2026-05-07 13:10 | 33.63963 | 130.53841 | 9181 ft | 291 kts | 159° |
| 2026-05-07 13:10 | 33.62123 | 130.54820 | 9992 ft | 294 kts | 163° |
| 2026-05-07 13:10 | 33.60210 | 130.55744 | 10726 ft | 298 kts | 163° |
| 2026-05-07 13:10 | 33.58279 | 130.56675 | 11504 ft | 300 kts | 164° |
| 2026-05-07 13:11 | 33.56333 | 130.57627 | 12282 ft | 304 kts | 164° |
| 2026-05-07 13:11 | 33.54361 | 130.58596 | 13037 ft | 308 kts | 164° |
| 2026-05-07 13:11 | 33.52371 | 130.59593 | 13747 ft | 312 kts | 164° |
| 2026-05-07 13:11 | 33.50454 | 130.60880 | 14256 ft | 323 kts | 148° |
| 2026-05-07 13:12 | 33.48769 | 130.62716 | 14841 ft | 331 kts | 141° |
| 2026-05-07 13:12 | 33.47146 | 130.64691 | 15474 ft | 334 kts | 141° |
| 2026-05-07 13:12 | 33.45515 | 130.66666 | 16124 ft | 332 kts | 142° |
| 2026-05-07 13:12 | 33.43878 | 130.68589 | 16705 ft | 335 kts | 143° |
| 2026-05-07 13:13 | 33.42164 | 130.70532 | 16978 ft | 346 kts | 143° |
| 2026-05-07 13:13 | 33.40341 | 130.72554 | 16958 ft | 368 kts | 143° |
| 2026-05-07 13:13 | 33.38411 | 130.74679 | 16977 ft | 388 kts | 143° |
| 2026-05-07 13:13 | 33.36373 | 130.76916 | 16975 ft | 407 kts | 143° |
| 2026-05-07 13:14 | 33.34248 | 130.79258 | 16959 ft | 421 kts | 141° |
| 2026-05-07 13:14 | 33.32438 | 130.82107 | 16957 ft | 445 kts | 121° |
| 2026-05-07 13:14 | 33.31515 | 130.85725 | 16959 ft | 465 kts | 99° |
| 2026-05-07 13:14 | 33.31642 | 130.89600 | 16952 ft | 468 kts | 80° |
| 2026-05-07 13:15 | 33.32392 | 130.93401 | 16949 ft | 473 kts | 77° |
| 2026-05-07 13:15 | 33.33173 | 130.97244 | 16953 ft | 477 kts | 77° |
| 2026-05-07 13:15 | 33.33943 | 131.01126 | 17376 ft | 487 kts | 78° |
| 2026-05-07 13:15 | 33.34704 | 131.05073 | 18414 ft | 486 kts | 78° |
| 2026-05-07 13:16 | 33.35445 | 131.09007 | 19362 ft | 484 kts | 78° |
| 2026-05-07 13:16 | 33.36174 | 131.12938 | 20362 ft | 482 kts | 78° |
| 2026-05-07 13:16 | 33.36890 | 131.16848 | 21355 ft | 481 kts | 79° |
| 2026-05-07 13:16 | 33.37601 | 131.20750 | 22374 ft | 479 kts | 79° |
| 2026-05-07 13:17 | 33.38309 | 131.24642 | 23387 ft | 478 kts | 79° |
| 2026-05-07 13:17 | 33.39018 | 131.28541 | 24233 ft | 478 kts | 79° |
| 2026-05-07 13:17 | 33.39722 | 131.32412 | 25173 ft | 474 kts | 79° |
| 2026-05-07 13:17 | 33.40414 | 131.36218 | 25988 ft | 476 kts | 78° |
| 2026-05-07 13:18 | 33.41123 | 131.40133 | 26513 ft | 485 kts | 78° |
| 2026-05-07 13:18 | 33.41845 | 131.44126 | 27043 ft | 493 kts | 78° |
| 2026-05-07 13:18 | 33.42623 | 131.48151 | 27616 ft | 499 kts | 75° |
| 2026-05-07 13:18 | 33.43566 | 131.52203 | 27920 ft | 511 kts | 73° |
| 2026-05-07 13:19 | 33.44603 | 131.56286 | 28023 ft | 526 kts | 73° |
| 2026-05-07 13:19 | 33.45711 | 131.60521 | 28134 ft | 539 kts | 72° |
| 2026-05-07 13:19 | 33.46842 | 131.64842 | 28284 ft | 549 kts | 72° |
| 2026-05-07 13:19 | 33.47982 | 131.69252 | 28502 ft | 555 kts | 73° |
| 2026-05-07 13:20 | 33.49114 | 131.73711 | 28833 ft | 558 kts | 73° |
| 2026-05-07 13:20 | 33.50215 | 131.78109 | 29250 ft | 558 kts | 73° |
| 2026-05-07 13:20 | 33.51318 | 131.82557 | 29808 ft | 555 kts | 73° |
| 2026-05-07 13:20 | 33.52411 | 131.86984 | 30339 ft | 553 kts | 73° |
| 2026-05-07 13:21 | 33.53499 | 131.91404 | 30833 ft | 551 kts | 73° |
| 2026-05-07 13:21 | 33.54585 | 131.95816 | 31283 ft | 550 kts | 73° |
| 2026-05-07 13:21 | 33.55668 | 132.00214 | 31702 ft | 549 kts | 73° |
| 2026-05-07 13:21 | 33.56749 | 132.04607 | 32171 ft | 548 kts | 73° |
| 2026-05-07 13:22 | 33.57824 | 132.08983 | 32626 ft | 547 kts | 73° |
| 2026-05-07 13:22 | 33.58884 | 132.13300 | 33083 ft | 545 kts | 72° |
| 2026-05-07 13:22 | 33.59951 | 132.17657 | 33529 ft | 544 kts | 72° |
| 2026-05-07 13:22 | 33.61014 | 132.22004 | 33943 ft | 543 kts | 72° |
| 2026-05-07 13:23 | 33.62076 | 132.26352 | 34297 ft | 543 kts | 72° |
| 2026-05-07 13:23 | 33.63136 | 132.30700 | 34657 ft | 542 kts | 72° |
| 2026-05-07 13:23 | 33.64189 | 132.35030 | 35024 ft | 541 kts | 72° |
| 2026-05-07 13:23 | 33.65244 | 132.39372 | 35368 ft | 541 kts | 72° |
| 2026-05-07 13:24 | 33.66292 | 132.43697 | 35684 ft | 541 kts | 72° |
| 2026-05-07 13:24 | 33.67342 | 132.48032 | 36005 ft | 540 kts | 72° |
| 2026-05-07 13:24 | 33.69455 | 132.56781 | 36111 ft | 551 kts | 72° |
| 2026-05-07 13:25 | 33.70525 | 132.61222 | 36250 ft | 553 kts | 73° |
| 2026-05-07 13:25 | 33.71593 | 132.65664 | 36550 ft | 551 kts | 73° |
| 2026-05-07 13:25 | 33.72652 | 132.70081 | 36905 ft | 549 kts | 73° |
| 2026-05-07 13:25 | 33.73707 | 132.74484 | 37171 ft | 548 kts | 73° |
| 2026-05-07 13:26 | 33.74748 | 132.78839 | 37420 ft | 548 kts | 73° |
| 2026-05-07 13:26 | 33.75800 | 132.83245 | 37629 ft | 548 kts | 73° |
| 2026-05-07 13:26 | 33.76850 | 132.87653 | 37859 ft | 548 kts | 73° |
| 2026-05-07 13:26 | 33.77899 | 132.92060 | 38105 ft | 548 kts | 73° |
| 2026-05-07 13:27 | 33.78947 | 132.96468 | 38433 ft | 546 kts | 73° |
| 2026-05-07 13:27 | 33.79984 | 133.00845 | 38767 ft | 543 kts | 73° |
| 2026-05-07 13:27 | 33.82059 | 133.09618 | 38900 ft | 548 kts | 73° |
| 2026-05-07 13:28 | 33.83791 | 133.16959 | 38935 ft | 550 kts | 73° |
| 2026-05-07 13:28 | 33.85869 | 133.25808 | 38941 ft | 549 kts | 73° |
| 2026-05-07 13:29 | 33.87935 | 133.34644 | 38940 ft | 549 kts | 73° |
| 2026-05-07 13:29 | 33.90007 | 133.43506 | 38919 ft | 548 kts | 73° |
| 2026-05-07 13:30 | 33.92052 | 133.52293 | 38955 ft | 548 kts | 73° |
| 2026-05-07 13:30 | 33.94099 | 133.61142 | 38953 ft | 548 kts | 73° |
| 2026-05-07 13:31 | 33.96142 | 133.69997 | 38944 ft | 548 kts | 74° |
| 2026-05-07 13:31 | 33.98251 | 133.78740 | 38953 ft | 547 kts | 71° |
| 2026-05-07 13:32 | 34.00760 | 133.87404 | 38947 ft | 547 kts | 69° |
| 2026-05-07 13:32 | 34.03257 | 133.96078 | 38944 ft | 548 kts | 71° |
| 2026-05-07 13:33 | 34.05125 | 134.04994 | 38940 ft | 548 kts | 78° |
| 2026-05-07 13:33 | 34.06703 | 134.14005 | 38946 ft | 549 kts | 78° |
| 2026-05-07 13:34 | 34.09154 | 134.27472 | 38936 ft | 550 kts | 77° |
| 2026-05-07 13:35 | 34.10803 | 134.36507 | 38951 ft | 550 kts | 78° |
| 2026-05-07 13:35 | 34.12428 | 134.45541 | 38931 ft | 550 kts | 78° |
| 2026-05-07 13:36 | 34.14034 | 134.54519 | 38939 ft | 550 kts | 78° |
| 2026-05-07 13:36 | 34.15645 | 134.63546 | 38946 ft | 549 kts | 78° |
| 2026-05-07 13:37 | 34.17250 | 134.72573 | 38940 ft | 549 kts | 78° |
| 2026-05-07 13:37 | 34.18846 | 134.81591 | 38937 ft | 549 kts | 78° |
| 2026-05-07 13:38 | 34.20437 | 134.90626 | 38939 ft | 549 kts | 78° |
| 2026-05-07 13:38 | 34.22019 | 134.99649 | 38939 ft | 549 kts | 79° |
| 2026-05-07 13:39 | 34.23560 | 135.08630 | 38933 ft | 548 kts | 79° |
| 2026-05-07 13:39 | 34.25083 | 135.17642 | 38924 ft | 547 kts | 79° |
| 2026-05-07 13:40 | 34.26603 | 135.26660 | 38935 ft | 547 kts | 79° |
| 2026-05-07 13:40 | 34.28120 | 135.35672 | 38938 ft | 547 kts | 79° |
| 2026-05-07 13:41 | 34.29631 | 135.44691 | 38940 ft | 547 kts | 79° |
| 2026-05-07 13:41 | 34.31134 | 135.53702 | 38940 ft | 546 kts | 79° |
| 2026-05-07 13:42 | 34.32629 | 135.62712 | 38940 ft | 546 kts | 80° |
| 2026-05-07 13:42 | 34.34110 | 135.71680 | 38948 ft | 546 kts | 80° |
| 2026-05-07 13:43 | 34.35587 | 135.80698 | 38944 ft | 546 kts | 81° |
| 2026-05-07 13:43 | 34.36845 | 135.89772 | 38937 ft | 546 kts | 83° |
| 2026-05-07 13:44 | 34.37976 | 135.98854 | 38955 ft | 546 kts | 83° |
| 2026-05-07 13:44 | 34.39128 | 136.07969 | 38945 ft | 546 kts | 83° |
| 2026-05-07 13:45 | 34.40298 | 136.16993 | 38947 ft | 546 kts | 83° |
| 2026-05-07 13:45 | 34.41480 | 136.26073 | 38949 ft | 545 kts | 82° |
| 2026-05-07 13:46 | 34.42653 | 136.35146 | 38935 ft | 544 kts | 83° |
| 2026-05-07 13:46 | 34.43814 | 136.44210 | 38927 ft | 544 kts | 83° |
| 2026-05-07 13:47 | 34.44959 | 136.53208 | 38934 ft | 543 kts | 83° |
| 2026-05-07 13:47 | 34.46102 | 136.62252 | 38935 ft | 543 kts | 83° |
| 2026-05-07 13:48 | 34.47241 | 136.71308 | 38928 ft | 543 kts | 83° |
| 2026-05-07 13:48 | 34.48372 | 136.80363 | 38933 ft | 542 kts | 83° |
| 2026-05-07 13:49 | 34.49494 | 136.89400 | 38929 ft | 542 kts | 83° |
| 2026-05-07 13:49 | 34.50609 | 136.98434 | 38936 ft | 541 kts | 84° |
| 2026-05-07 13:50 | 34.51707 | 137.07379 | 38934 ft | 539 kts | 84° |
| 2026-05-07 13:50 | 34.52801 | 137.16357 | 38931 ft | 537 kts | 84° |
| 2026-05-07 13:51 | 34.53885 | 137.25311 | 38936 ft | 536 kts | 84° |
| 2026-05-07 13:51 | 34.54961 | 137.34252 | 38936 ft | 535 kts | 84° |
| 2026-05-07 13:52 | 34.56031 | 137.43200 | 38946 ft | 534 kts | 84° |
| 2026-05-07 13:52 | 34.57090 | 137.52112 | 38937 ft | 533 kts | 84° |
| 2026-05-07 13:53 | 34.58135 | 137.60960 | 38940 ft | 532 kts | 84° |
| 2026-05-07 13:53 | 34.59179 | 137.69853 | 38941 ft | 531 kts | 84° |
| 2026-05-07 13:54 | 34.60215 | 137.78739 | 38944 ft | 531 kts | 84° |
| 2026-05-07 13:54 | 34.61224 | 137.87436 | 38663 ft | 513 kts | 84° |
| 2026-05-07 13:54 | 34.61724 | 137.91765 | 37961 ft | 511 kts | 84° |
| 2026-05-07 13:55 | 34.62210 | 137.96006 | 36963 ft | 516 kts | 84° |
| 2026-05-07 13:55 | 34.62707 | 138.00357 | 35882 ft | 523 kts | 84° |
| 2026-05-07 13:55 | 34.63208 | 138.04768 | 34795 ft | 530 kts | 84° |
| 2026-05-07 13:55 | 34.63714 | 138.09223 | 33717 ft | 535 kts | 84° |
| 2026-05-07 13:56 | 34.64223 | 138.13713 | 32620 ft | 538 kts | 84° |
| 2026-05-07 13:56 | 34.64734 | 138.18221 | 31632 ft | 539 kts | 84° |
| 2026-05-07 13:56 | 34.65241 | 138.22713 | 30845 ft | 535 kts | 84° |
| 2026-05-07 13:56 | 34.65745 | 138.27186 | 29971 ft | 533 kts | 84° |
| 2026-05-07 13:57 | 34.66244 | 138.31638 | 28984 ft | 530 kts | 84° |
| 2026-05-07 13:57 | 34.66736 | 138.36055 | 28018 ft | 527 kts | 84° |
| 2026-05-07 13:57 | 34.67225 | 138.40455 | 27105 ft | 524 kts | 84° |
| 2026-05-07 13:57 | 34.67710 | 138.44834 | 26203 ft | 521 kts | 84° |
| 2026-05-07 13:58 | 34.68190 | 138.49179 | 25335 ft | 517 kts | 84° |
| 2026-05-07 13:58 | 34.68659 | 138.53445 | 24515 ft | 514 kts | 83° |
| 2026-05-07 13:58 | 34.69130 | 138.57735 | 23690 ft | 511 kts | 83° |
| 2026-05-07 13:58 | 34.69595 | 138.61996 | 22775 ft | 507 kts | 83° |
| 2026-05-07 13:59 | 34.70061 | 138.66261 | 22256 ft | 495 kts | 83° |
| 2026-05-07 13:59 | 34.70504 | 138.70337 | 22044 ft | 478 kts | 83° |
| 2026-05-07 13:59 | 34.70936 | 138.74323 | 21955 ft | 480 kts | 84° |
| 2026-05-07 13:59 | 34.71367 | 138.78347 | 21963 ft | 491 kts | 84° |
| 2026-05-07 14:00 | 34.71665 | 138.82484 | 21947 ft | 491 kts | 89° |
| 2026-05-07 14:00 | 34.71649 | 138.86630 | 21944 ft | 493 kts | 92° |
| 2026-05-07 14:00 | 34.71575 | 138.90804 | 21949 ft | 493 kts | 92° |
| 2026-05-07 14:00 | 34.71524 | 138.94991 | 21944 ft | 494 kts | 92° |
| 2026-05-07 14:01 | 34.71497 | 138.99158 | 21956 ft | 494 kts | 91° |
| 2026-05-07 14:01 | 34.71478 | 139.03347 | 21946 ft | 494 kts | 91° |
| 2026-05-07 14:01 | 34.71455 | 139.07522 | 21940 ft | 494 kts | 91° |
| 2026-05-07 14:01 | 34.71430 | 139.11693 | 21938 ft | 493 kts | 92° |
| 2026-05-07 14:02 | 34.71402 | 139.15867 | 21925 ft | 493 kts | 92° |
| 2026-05-07 14:02 | 34.71373 | 139.19986 | 21940 ft | 493 kts | 92° |
| 2026-05-07 14:02 | 34.71342 | 139.24154 | 21937 ft | 493 kts | 92° |
| 2026-05-07 14:02 | 34.71310 | 139.28316 | 21933 ft | 493 kts | 92° |
| 2026-05-07 14:03 | 34.71277 | 139.32495 | 21934 ft | 493 kts | 92° |
| 2026-05-07 14:03 | 34.71242 | 139.36658 | 21924 ft | 492 kts | 92° |
| 2026-05-07 14:03 | 34.71397 | 139.40768 | 21517 ft | 486 kts | 81° |
| 2026-05-07 14:03 | 34.72484 | 139.44598 | 21287 ft | 472 kts | 62° |
| 2026-05-07 14:04 | 34.74117 | 139.47933 | 21161 ft | 450 kts | 59° |
| 2026-05-07 14:04 | 34.75654 | 139.51115 | 21064 ft | 434 kts | 60° |
| 2026-05-07 14:04 | 34.77116 | 139.54256 | 20968 ft | 420 kts | 61° |
| 2026-05-07 14:04 | 34.78517 | 139.57320 | 20837 ft | 408 kts | 61° |
| 2026-05-07 14:05 | 34.80058 | 139.60147 | 20552 ft | 398 kts | 47° |
| 2026-05-07 14:05 | 34.82111 | 139.62332 | 20313 ft | 387 kts | 32° |
| 2026-05-07 14:05 | 34.84469 | 139.63910 | 19758 ft | 385 kts | 20° |
| 2026-05-07 14:05 | 34.86971 | 139.65091 | 19180 ft | 387 kts | 18° |
| 2026-05-07 14:06 | 34.89459 | 139.66261 | 18629 ft | 389 kts | 19° |
| 2026-05-07 14:06 | 34.91988 | 139.67466 | 18063 ft | 392 kts | 19° |
| 2026-05-07 14:06 | 34.94536 | 139.68692 | 17427 ft | 394 kts | 19° |
| 2026-05-07 14:06 | 34.97096 | 139.69931 | 16801 ft | 396 kts | 19° |
| 2026-05-07 14:07 | 34.99658 | 139.71175 | 16166 ft | 397 kts | 19° |
| 2026-05-07 14:07 | 35.02230 | 139.72428 | 15570 ft | 399 kts | 19° |
| 2026-05-07 14:07 | 35.04807 | 139.73684 | 14980 ft | 400 kts | 19° |
| 2026-05-07 14:07 | 35.07393 | 139.74946 | 14397 ft | 400 kts | 18° |
| 2026-05-07 14:08 | 35.09998 | 139.76216 | 13520 ft | 408 kts | 18° |
| 2026-05-07 14:08 | 35.12695 | 139.77530 | 12230 ft | 425 kts | 18° |
| 2026-05-07 14:08 | 35.15434 | 139.78981 | 10994 ft | 436 kts | 25° |
| 2026-05-07 14:08 | 35.17980 | 139.80970 | 9993 ft | 422 kts | 36° |
| 2026-05-07 14:09 | 35.20068 | 139.83345 | 8926 ft | 400 kts | 46° |
| 2026-05-07 14:09 | 35.21818 | 139.85922 | 7683 ft | 387 kts | 53° |
| 2026-05-07 14:09 | 35.23110 | 139.88678 | 6747 ft | 370 kts | 70° |
| 2026-05-07 14:09 | 35.23570 | 139.91651 | 6260 ft | 340 kts | 94° |
| 2026-05-07 14:10 | 35.23098 | 139.94318 | 6012 ft | 305 kts | 120° |
| 2026-05-07 14:10 | 35.21895 | 139.96269 | 5900 ft | 281 kts | 145° |
| 2026-05-07 14:10 | 35.20349 | 139.97710 | 5907 ft | 278 kts | 151° |
| 2026-05-07 14:10 | 35.18756 | 139.99043 | 5892 ft | 275 kts | 152° |
| 2026-05-07 14:11 | 35.17170 | 140.00355 | 5875 ft | 276 kts | 152° |
| 2026-05-07 14:11 | 35.15576 | 140.01666 | 5888 ft | 276 kts | 152° |
| 2026-05-07 14:11 | 35.13997 | 140.02955 | 5892 ft | 276 kts | 152° |
| 2026-05-07 14:11 | 35.12400 | 140.04257 | 5887 ft | 276 kts | 152° |
| 2026-05-07 14:12 | 35.10802 | 140.05557 | 5896 ft | 275 kts | 152° |
| 2026-05-07 14:12 | 35.09208 | 140.06855 | 5896 ft | 275 kts | 152° |
| 2026-05-07 14:12 | 35.07609 | 140.08151 | 5883 ft | 274 kts | 152° |
| 2026-05-07 14:12 | 35.06036 | 140.09421 | 5889 ft | 273 kts | 152° |
| 2026-05-07 14:13 | 35.04454 | 140.10703 | 5901 ft | 272 kts | 152° |
| 2026-05-07 14:13 | 35.02845 | 140.11933 | 5900 ft | 272 kts | 161° |
| 2026-05-07 14:13 | 35.01046 | 140.12402 | 5901 ft | 261 kts | 188° |
| 2026-05-07 14:13 | 34.99356 | 140.11774 | 5915 ft | 253 kts | 213° |
| 2026-05-07 14:14 | 34.97916 | 140.10549 | 5909 ft | 253 kts | 220° |
| 2026-05-07 14:14 | 34.96606 | 140.09120 | 5902 ft | 252 kts | 228° |
| 2026-05-07 14:14 | 34.95656 | 140.07351 | 5894 ft | 252 kts | 251° |
| 2026-05-07 14:14 | 34.95474 | 140.05951 | 5909 ft | 254 kts | 269° |
| 2026-05-07 14:15 | 34.96318 | 140.03244 | 5900 ft | 267 kts | 306° |
| 2026-05-07 14:15 | 34.97224 | 140.02216 | 5915 ft | 271 kts | 316° |
| 2026-05-07 14:15 | 34.98777 | 140.00876 | 5913 ft | 275 kts | 321° |
| 2026-05-07 14:15 | 35.00922 | 139.99209 | 5913 ft | 276 kts | 322° |
| 2026-05-07 14:16 | 35.02028 | 139.98369 | 5902 ft | 277 kts | 323° |
| 2026-05-07 14:16 | 35.03674 | 139.97149 | 5902 ft | 276 kts | 322° |
| 2026-05-07 14:16 | 35.05276 | 139.95933 | 5805 ft | 273 kts | 322° |
| 2026-05-07 14:16 | 35.06872 | 139.94719 | 5435 ft | 268 kts | 322° |
| 2026-05-07 14:17 | 35.08464 | 139.93510 | 4696 ft | 273 kts | 323° |
| 2026-05-07 14:17 | 35.10057 | 139.92290 | 4221 ft | 264 kts | 322° |
| 2026-05-07 14:17 | 35.11645 | 139.91075 | 4027 ft | 272 kts | 322° |
| 2026-05-07 14:17 | 35.13265 | 139.89834 | 3922 ft | 273 kts | 323° |
| 2026-05-07 14:18 | 35.14834 | 139.88591 | 3893 ft | 263 kts | 318° |
| 2026-05-07 14:18 | 35.16202 | 139.87192 | 3887 ft | 251 kts | 309° |
| 2026-05-07 14:18 | 35.17334 | 139.85603 | 3887 ft | 248 kts | 301° |
| 2026-05-07 14:18 | 35.18254 | 139.83824 | 3896 ft | 253 kts | 292° |
| 2026-05-07 14:19 | 35.19055 | 139.81925 | 3881 ft | 251 kts | 300° |
| 2026-05-07 14:19 | 35.20450 | 139.80570 | 3887 ft | 270 kts | 334° |
| 2026-05-07 14:19 | 35.22362 | 139.80383 | 3888 ft | 284 kts | 3° |
| 2026-05-07 14:19 | 35.24292 | 139.80554 | 3866 ft | 272 kts | 343° |
| 2026-05-07 14:20 | 35.26046 | 139.79830 | 3895 ft | 268 kts | 333° |
| 2026-05-07 14:20 | 35.27850 | 139.79084 | 3900 ft | 277 kts | 338° |
| 2026-05-07 14:20 | 35.29708 | 139.78456 | 3899 ft | 274 kts | 341° |
| 2026-05-07 14:20 | 35.31550 | 139.78029 | 3872 ft | 271 kts | 357° |
| 2026-05-07 14:21 | 35.33406 | 139.78570 | 3890 ft | 279 kts | 18° |
| 2026-05-07 14:21 | 35.35232 | 139.79422 | 3892 ft | 286 kts | 17° |
| 2026-05-07 14:21 | 35.37095 | 139.80268 | 3885 ft | 283 kts | 17° |
| 2026-05-07 14:21 | 35.38909 | 139.81088 | 3863 ft | 271 kts | 17° |
| 2026-05-07 14:22 | 35.40641 | 139.81869 | 3854 ft | 258 kts | 16° |
| 2026-05-07 14:22 | 35.42301 | 139.82614 | 3856 ft | 251 kts | 16° |
| 2026-05-07 14:22 | 35.43919 | 139.83337 | 3847 ft | 243 kts | 16° |
| 2026-05-07 14:22 | 35.45445 | 139.84020 | 3846 ft | 231 kts | 16° |
| 2026-05-07 14:23 | 35.46949 | 139.84691 | 3860 ft | 230 kts | 16° |
| 2026-05-07 14:23 | 35.48452 | 139.85361 | 3880 ft | 230 kts | 16° |
| 2026-05-07 14:23 | 35.49957 | 139.86033 | 3886 ft | 230 kts | 16° |
| 2026-05-07 14:23 | 35.51444 | 139.86699 | 3892 ft | 220 kts | 16° |
| 2026-05-07 14:24 | 35.52817 | 139.87317 | 3899 ft | 203 kts | 17° |
| 2026-05-07 14:24 | 35.54167 | 139.87700 | 3781 ft | 201 kts | 9° |
| 2026-05-07 14:24 | 35.55538 | 139.88087 | 3437 ft | 200 kts | 5° |
| 2026-05-07 14:24 | 35.56917 | 139.88170 | 2869 ft | 198 kts | 351° |
| 2026-05-07 14:25 | 35.58151 | 139.87558 | 1926 ft | 189 kts | 305° |
| 2026-05-07 14:25 | 35.58169 | 139.86131 | 972 ft | 170 kts | 229° |
| 2026-05-07 14:25 | 35.57155 | 139.85519 | 492 ft | 149 kts | 204° |
| 2026-05-07 14:25 | 35.56358 | 139.84754 | 637 ft | 145 kts | 222° |
| 2026-05-07 14:26 | 35.55503 | 139.84049 | 212 ft | 165 kts | 198° |